• Join FlightAware (Why Join?)
  • Login
  • US Flag 
01:04AM EDT


 

Airport Tracker/Info


-or-


 

Live Flight TrackerFlight Track Log ✈ AWE3497 ✈ 14-Nov-2013 ✈ KDCA - KCMH

Flight Track Log - Related Links

Times and Time Zones

All times are in EST time to prevent confusion due to time zone crossing. See the AWE3497 flight status page for this flight to view local times or setup timezone preferences in your user account.

Time Position Orientation Groundspeed Altitude Reporting Facility
EST Latitude Longitude Course Direction KTS MPH feet Rate Location/Type
03:52PM 38.8333 -77.0333 266° West 141 162 1,000  Level Potomac TRACON
03:53PM 38.8000 -77.0333 180° South 185 213 2,300 1,800 Climbing Potomac TRACON
03:54PM 38.9287 -77.3829 270° West  Level Estimated
03:54PM 38.7500 -77.0667 207° Southwest 241 277 4,500  Level Potomac TRACON
03:55PM 38.9541 -77.4981 270° West  Level Estimated
03:55PM 38.7333 -77.1667 258° West 257 296 6,500  Level Potomac TRACON
03:56PM 38.9793 -77.6134 275° West  Level Estimated
03:56PM 38.7333 -77.2500 270° West 261 300 9,400  Level Potomac TRACON
03:57PM 38.9723 -77.7329 266° West  Level FlightAware Approximate
03:57PM 38.8000 -77.3167 322° Northwest 291 335 11,200  Level Potomac TRACON
03:58PM 38.8333 -77.4167 293° West 307 353 13,400 1,740 Climbing Potomac TRACON
04:00PM 38.9231 -77.6356 298° West 325 374 17,000 1,560 Climbing Washington Center
04:01PM 38.9458 -77.7617 283° West 325 374 18,800 1,860 Climbing Washington Center
04:02PM 38.9500 -77.8844 273° West 341 392 20,700 1,080 Climbing Washington Center
04:03PM 38.9517 -78.0019 271° West 346 398 21,000 840 Climbing Washington Center
04:04PM 38.9556 -78.1247 272° West 346 398 22,500 1,500 Climbing Washington Center
04:05PM 38.9611 -78.2478 273° West 346 398 24,000 1,260 Climbing Washington Center
04:06PM 38.9694 -78.3497 276° West 352 405 25,100 1,200 Climbing Washington Center
04:07PM 38.9764 -78.4914 274° West 358 412 26,500 1,260 Climbing Washington Center
04:08PM 38.9858 -78.6225 275° West 368 423 27,700 1,380 Climbing Washington Center
04:09PM 38.9928 -78.7564 274° West 373 429 29,300 1,080 Climbing Washington Center
04:10PM 39.0036 -78.8906 276° West 378 435 30,000 300 Climbing Washington Center
04:11PM 39.0103 -79.0244 274° West 378 435 30,000  Level Washington Center
04:12PM 39.0169 -79.1583 274° West 378 435 30,000  Level Washington Center
04:13PM 39.0275 -79.2897 276° West 378 435 30,000  Level Washington Center
04:14PM 39.0339 -79.4211 274° West 378 435 30,000  Level Washington Center
04:15PM 39.0442 -79.5525 276° West 378 435 30,000  Level Washington Center
04:16PM 39.0542 -79.6894 275° West 378 435 30,000  Level Washington Center
04:17PM 39.0642 -79.8183 276° West 373 429 30,000  Level Washington Center
04:18PM 39.0633 -79.8908 269° West 379 436 30,000  Level Indianapolis Center
04:19PM 39.0733 -80.0464 275° West 375 432 30,000  Level Indianapolis Center
04:20PM 39.0800 -80.1683 274° West 376 433 30,000  Level Indianapolis Center
04:21PM 39.0883 -80.3008 275° West 371 427 30,000  Level Indianapolis Center
04:22PM 39.1203 -80.4569 285° West 378 435 30,000  Level Indianapolis Center
04:23PM 39.1525 -80.5861 288° West 379 436 30,000  Level Indianapolis Center
04:24PM 39.1858 -80.7161 288° West 382 440 30,000  Level Indianapolis Center
04:25PM 39.2192 -80.8453 288° West 383 441 30,000  Level Indianapolis Center
04:26PM 39.2681 -80.9658 298° West 382 440 30,000 -780 Level Indianapolis Center
04:27PM 39.3200 -81.0864 299° West 386 444 28,500 -1,920 Descending Indianapolis Center
04:28PM 39.3789 -81.2361 297° West 391 450 26,100 -2,100 Descending Indianapolis Center
04:29PM 39.4036 -81.3614 284° West 365 420 24,200 -1,800 Descending Indianapolis Center
04:30PM 39.4272 -81.4842 284° West 355 409 22,400 -1,740 Descending Indianapolis Center
04:31PM 39.4500 -81.6008 284° West 340 391 20,700 -1,680 Descending Indianapolis Center
04:32PM 39.4717 -81.7150 284° West 330 380 19,000 -1,500 Descending Indianapolis Center
04:33PM 39.4936 -81.8278 284° West 325 374 17,600 -1,620 Descending Indianapolis Center
04:34PM 39.5183 -81.9608 284° West 318 366 15,700 -1,860 Descending Indianapolis Center
04:35PM 39.5325 -82.0492 282° West 314 361 14,300 -1,800 Descending Indianapolis Center
04:35PM 39.5403 -82.0800 288° West 312 359 13,800 -1,380 Descending Indianapolis Center
04:36PM 39.5572 -82.1614 285° West 303 349 12,600 -1,500 Descending Indianapolis Center
04:36PM 39.5672 -82.1789 307° West 307 353 12,300 -1,860 Descending Indianapolis Center
04:37PM 39.6414 -82.2356 330° Northwest 308 354 10,700 -1,620 Descending Indianapolis Center
04:37PM 39.6417 -82.2389 276° West 314 361 10,700 -720 Level Indianapolis Center
04:38PM 39.7142 -82.2958 329° Northwest 308 354 10,000 -720 Descending Indianapolis Center
04:38PM 39.7136 -82.2944 117° Southeast 307 353 10,000 -480 Level Indianapolis Center
04:39PM 39.7850 -82.3503 329° Northwest 301 346 9,500 -1,140 Descending Indianapolis Center
04:40PM 39.8500 -82.3983 330° Northwest 274 315 7,700 -1,860 Descending Indianapolis Center
04:41PM 39.8906 -82.4831 302° West 246 283 5,800 -1,680 Descending Indianapolis Center
04:41PM 39.8872 -82.4747 118° Southeast 257 296 6,000 -1,860 Climbing Indianapolis Center
04:42PM 39.9472 -82.5414 320° Northwest 262 302 3,800 -1,560 Descending Indianapolis Center
04:43PM 39.9822 -82.6036 306° West 258 297 3,000 -900 Descending Indianapolis Center
04:44PM 39.9844 -82.6097 295° West 257 296 2,900 -300 Descending Indianapolis Center
04:45PM 39.9919 -82.6925 277° West 242 278 2,700 -180 Descending Indianapolis Center
04:45PM 39.9950 -82.7614 273° West 192 221 2,600 -240 Descending Indianapolis Center
04:46PM 39.9969 -82.7636 319° Northwest 219 252 2,500 -900 Descending Indianapolis Center
04:46PM 39.9981 -82.8192 272° West 152 175 1,700 -780 Descending Indianapolis Center
04:47PM 39.9983 -82.8217 278° West 187 215 1,700 -720 Level Indianapolis Center
04:47PM 39.9997 -82.8686 272° West 124 143 1,000 -540 Descending Indianapolis Center
04:48PM 40.0011 -82.8736 290° West 161 185 1,200 1,080 Climbing Indianapolis Center